Time;durP1;ratioP1;P1;durP2;ratioP2;P2;SDS_P1;SDS_P2;PMS_P1;PMS_P2;Temp;Humidity;BMP_temperature;BMP_pressure;BME280_temperature;BME280_humidity;BME280_pressure;Samples;Min_cycle;Max_cycle;Signal;HPM_P1;HPM_P2
2022/09/09 00:02:03;;;;;;;6.27;1.57;;;;;;;13.55;100.00;95911.38;5051810;28;20032;-75
2022/09/09 00:04:38;;;;;;;5.50;1.37;;;;;;;13.53;100.00;95908.09;5033768;28;20128;-76
2022/09/09 00:07:06;;;;;;;2.33;1.20;;;;;;;13.52;100.00;95894.06;5058507;28;20039;-76
2022/09/09 00:09:45;;;;;;;4.67;1.40;;;;;;;13.51;100.00;95902.16;5070061;28;20385;-75
2022/09/09 00:12:15;;;;;;;4.30;1.20;;;;;;;13.38;100.00;95898.38;5070872;28;20028;-76
2022/09/09 00:14:59;;;;;;;3.60;1.33;;;;;;;13.37;100.00;95895.91;5053255;28;20541;-76
2022/09/09 00:17:30;;;;;;;4.43;1.10;;;;;;;13.32;100.00;95893.00;5071170;28;20051;-76
2022/09/09 00:20:11;;;;;;;3.47;0.90;;;;;;;13.28;100.00;95892.56;5071052;28;20044;-76
2022/09/09 00:22:42;;;;;;;4.70;1.50;;;;;;;13.23;100.00;95889.59;5070244;28;20028;-75
2022/09/09 00:25:39;;;;;;;4.10;1.10;;;;;;;13.20;100.00;95895.25;5069606;28;20033;-76
2022/09/09 00:28:17;;;;;;;3.07;1.03;;;;;;;13.22;100.00;95895.91;5050634;28;20041;-76
2022/09/09 00:30:43;;;;;;;3.57;1.20;;;;;;;13.20;100.00;95890.78;5061979;28;20028;-75
2022/09/09 00:33:15;;;;;;;5.07;1.10;;;;;;;13.15;100.00;95889.72;5069438;28;20105;-75
2022/09/09 00:35:54;;;;;;;3.60;1.03;;;;;;;13.17;100.00;95892.97;5069122;28;20037;-76
2022/09/09 00:38:41;;;;;;;4.93;1.10;;;;;;;13.25;100.00;95892.94;5070848;28;20056;-75
2022/09/09 00:41:17;;;;;;;6.93;1.20;;;;;;;13.27;100.00;95896.19;5052635;28;20032;-76
2022/09/09 00:43:52;;;;;;;3.47;1.07;;;;;;;13.20;100.00;95889.97;5064160;28;20039;-75
2022/09/09 00:46:33;;;;;;;3.63;1.07;;;;;;;13.27;100.00;95890.91;5070428;28;20070;-76
2022/09/09 00:49:41;;;;;;;4.60;1.07;;;;;;;13.37;100.00;95886.16;5052332;28;20032;-75
2022/09/09 00:52:28;;;;;;;3.60;1.10;;;;;;;13.40;100.00;95891.06;5069176;28;20110;-76
2022/09/09 00:54:57;;;;;;;3.17;1.13;;;;;;;13.42;100.00;95894.34;5052192;28;20111;-75
2022/09/09 00:57:30;;;;;;;3.97;1.17;;;;;;;13.43;100.00;95905.72;5068874;28;20482;-76
2022/09/09 01:00:18;;;;;;;3.38;0.90;;;;;;;13.41;100.00;95895.38;5049281;28;20083;-75
2022/09/09 01:02:52;;;;;;;4.33;1.20;;;;;;;13.41;100.00;95902.44;5066290;28;20055;-76
2022/09/09 01:05:33;;;;;;;3.57;1.10;;;;;;;13.42;100.00;95899.63;5068691;28;20035;-75
2022/09/09 01:08:02;;;;;;;5.43;1.10;;;;;;;13.42;100.00;95897.00;5052347;28;20047;-75
2022/09/09 01:10:50;;;;;;;6.07;1.37;;;;;;;13.44;100.00;95889.69;5068799;28;20036;-76
2022/09/09 01:13:36;;;;;;;5.37;1.40;;;;;;;13.48;100.00;95886.66;5070075;28;21044;-76
2022/09/09 01:16:11;;;;;;;4.67;1.20;;;;;;;13.48;100.00;95889.31;5068656;28;20036;-75
2022/09/09 01:18:45;;;;;;;3.37;1.37;;;;;;;13.48;100.00;95886.66;5069738;28;20107;-75
2022/09/09 01:21:37;;;;;;;3.97;1.33;;;;;;;13.56;100.00;95887.41;5052356;28;20185;-75
2022/09/09 01:24:27;;;;;;;5.73;1.20;;;;;;;13.39;100.00;95888.63;5069501;28;20035;-76
2022/09/09 01:27:15;;;;;;;2.70;0.97;;;;;;;13.37;100.00;95890.63;5068441;28;20595;-75
2022/09/09 01:29:41;;;;;;;4.93;1.30;;;;;;;13.37;100.00;95888.78;5068556;28;20439;-75
2022/09/09 01:32:38;;;;;;;4.00;1.27;;;;;;;13.44;100.00;95886.22;5068683;28;20021;-76
2022/09/09 01:35:09;;;;;;;5.13;0.97;;;;;;;13.44;100.00;95894.16;5069949;28;20032;-76
2022/09/09 01:37:35;;;;;;;2.50;1.00;;;;;;;13.47;100.00;95885.03;5068493;28;20035;-75
2022/09/09 01:40:01;;;;;;;4.60;1.13;;;;;;;13.46;100.00;95878.94;5069853;28;20638;-76
2022/09/09 01:42:29;;;;;;;6.47;1.10;;;;;;;13.52;100.00;95880.03;5067954;28;20161;-76
2022/09/09 01:44:56;;;;;;;3.53;1.00;;;;;;;13.50;100.00;95885.50;5052083;28;20763;-76
2022/09/09 01:47:21;;;;;;;1.23;0.67;;;;;;;13.56;100.00;95878.66;5068230;28;20127;-76
2022/09/09 01:50:14;;;;;;;4.03;0.80;;;;;;;13.61;100.00;95876.25;5059068;28;20101;-76
2022/09/09 01:52:42;;;;;;;4.20;1.20;;;;;;;13.58;100.00;95881.91;5068535;28;20040;-75
2022/09/09 01:55:11;;;;;;;4.30;1.07;;;;;;;13.60;100.00;95879.91;5051952;28;20103;-75
2022/09/09 01:57:47;;;;;;;2.70;1.03;;;;;;;13.64;100.00;95870.59;5051986;28;20037;-76
2022/09/09 02:00:15;;;;;;;3.97;0.90;;;;;;;13.64;100.00;95878.53;5060577;28;20102;-76
2022/09/09 02:02:55;;;;;;;4.30;1.07;;;;;;;13.62;100.00;95880.56;5070112;28;20028;-76
2022/09/09 02:05:40;;;;;;;2.33;1.10;;;;;;;13.53;100.00;95884.31;5054607;28;20060;-75
2022/09/09 02:08:36;;;;;;;3.00;1.20;;;;;;;13.45;100.00;95882.59;5069990;28;20028;-76
2022/09/09 02:11:11;;;;;;;3.83;1.20;;;;;;;13.40;100.00;95877.84;5070676;28;20024;-76
2022/09/09 02:13:47;;;;;;;3.33;1.07;;;;;;;13.39;100.00;95883.34;5060624;28;20030;-76
2022/09/09 02:16:42;;;;;;;6.73;1.03;;;;;;;13.35;100.00;95882.91;5072454;28;20036;-76
2022/09/09 02:19:15;;;;;;;6.03;1.40;;;;;;;13.40;100.00;95887.59;5057842;28;20037;-76
2022/09/09 02:21:58;;;;;;;3.27;0.93;;;;;;;13.43;100.00;95889.88;5071928;28;20523;-76
2022/09/09 02:24:26;;;;;;;6.00;1.40;;;;;;;13.43;100.00;95885.41;5066443;28;20456;-76
2022/09/09 02:27:08;;;;;;;6.13;1.23;;;;;;;13.50;100.00;95888.13;5055655;28;20036;-76
2022/09/09 02:29:42;;;;;;;4.27;1.23;;;;;;;13.38;100.00;95881.69;5071841;28;20054;-75
2022/09/09 02:32:14;;;;;;;5.93;1.33;;;;;;;13.29;100.00;95886.25;5072011;28;20451;-76
2022/09/09 02:34:49;;;;;;;3.83;1.10;;;;;;;13.27;100.00;95888.25;5052093;28;20029;-75
2022/09/09 02:37:19;;;;;;;2.97;1.03;;;;;;;13.27;100.00;95882.97;5060082;28;20035;-75
2022/09/09 02:39:48;;;;;;;5.43;1.10;;;;;;;13.16;100.00;95883.44;5057996;28;20102;-76
2022/09/09 02:42:18;;;;;;;3.20;1.20;;;;;;;13.02;100.00;95876.34;5071570;28;20016;-76
2022/09/09 02:44:45;;;;;;;5.03;1.40;;;;;;;12.97;100.00;95882.97;5065359;28;20037;-75
2022/09/09 02:47:41;;;;;;;3.57;1.00;;;;;;;12.95;100.00;95877.06;5071878;28;20394;-76
2022/09/09 02:50:24;;;;;;;2.93;1.00;;;;;;;12.90;100.00;95873.34;5082500;28;20678;-76
2022/09/09 02:53:02;;;;;;;4.47;1.40;;;;;;;12.84;100.00;95871.41;5091130;28;20055;-76
2022/09/09 02:55:39;;;;;;;5.13;1.27;;;;;;;12.73;100.00;95877.97;5071313;28;20020;-75
2022/09/09 02:58:11;;;;;;;3.90;1.20;;;;;;;12.71;100.00;95878.16;5054647;28;20035;-76
2022/09/09 03:00:39;;;;;;;5.33;1.10;;;;;;;12.71;100.00;95880.00;5072671;28;20382;-75
2022/09/09 03:03:08;;;;;;;3.57;1.00;;;;;;;12.68;100.00;95881.16;5071558;28;20044;-76
2022/09/09 03:05:35;;;;;;;5.70;0.93;;;;;;;12.72;100.00;95881.63;5072425;28;20036;-75
2022/09/09 03:08:03;;;;;;;6.50;1.47;;;;;;;12.67;100.00;95882.13;5054532;28;20025;-75
2022/09/09 03:10:29;;;;;;;4.13;1.00;;;;;;;12.67;100.00;95881.31;5070905;28;20059;-74
2022/09/09 03:12:55;;;;;;;4.47;1.70;;;;;;;12.59;100.00;95884.06;5053996;28;20037;-75
2022/09/09 03:15:21;;;;;;;5.73;1.53;;;;;;;12.56;100.00;95882.59;5071248;28;20114;-75
2022/09/09 03:17:47;;;;;;;7.20;1.40;;;;;;;12.56;100.00;95887.06;5070927;28;20537;-74
2022/09/09 03:20:13;;;;;;;3.13;1.07;;;;;;;12.59;100.00;95889.34;5070804;28;20064;-74
2022/09/09 03:22:40;;;;;;;4.07;1.27;;;;;;;12.57;100.00;95886.88;5069476;28;20067;-74
2022/09/09 03:25:06;;;;;;;4.27;1.10;;;;;;;12.63;100.00;95883.50;5070468;28;20113;-74
2022/09/09 03:27:35;;;;;;;5.17;1.20;;;;;;;12.57;100.00;95889.50;5070873;28;20394;-74
2022/09/09 03:30:03;;;;;;;6.13;1.20;;;;;;;12.58;100.00;95882.44;5070229;28;20549;-74
2022/09/09 03:32:31;;;;;;;3.67;1.20;;;;;;;12.59;100.00;95892.78;5053808;28;20027;-74
2022/09/09 03:34:57;;;;;;;7.60;1.13;;;;;;;12.59;100.00;95897.25;5067038;28;20072;-74
2022/09/09 03:37:23;;;;;;;6.53;1.50;;;;;;;12.51;100.00;95890.25;5050792;28;20494;-74
2022/09/09 03:39:49;;;;;;;6.67;1.50;;;;;;;12.49;100.00;95881.69;5068050;28;20405;-75
2022/09/09 03:42:18;;;;;;;8.20;1.37;;;;;;;12.64;100.00;95869.34;5058552;28;20027;-74
2022/09/09 03:44:49;;;;;;;6.33;1.03;;;;;;;12.63;100.00;95872.97;5070354;28;20063;-75
2022/09/09 03:47:21;;;;;;;6.47;1.63;;;;;;;12.58;100.00;95875.34;5053834;28;20043;-75
2022/09/09 03:49:49;;;;;;;4.95;1.20;;;;;;;12.49;100.00;95881.69;5070218;28;20041;-75
2022/09/09 03:52:15;;;;;;;3.13;1.20;;;;;;;12.43;100.00;95883.19;5070365;28;20040;-75
2022/09/09 03:54:42;;;;;;;7.33;1.30;;;;;;;12.48;100.00;95886.13;5070326;28;20037;-75
2022/09/09 03:57:12;;;;;;;8.03;1.83;;;;;;;12.46;100.00;95885.50;5069898;28;20039;-74
2022/09/09 03:59:38;;;;;;;3.40;1.23;;;;;;;12.39;100.00;95889.84;5046349;28;20032;-75
2022/09/09 04:02:04;;;;;;;6.17;1.40;;;;;;;12.38;100.00;95896.13;5071203;28;20028;-75
2022/09/09 04:04:30;;;;;;;6.27;1.03;;;;;;;12.45;100.00;95896.22;5070642;28;20040;-74
2022/09/09 04:06:56;;;;;;;4.73;1.30;;;;;;;12.46;100.00;95892.59;5070547;28;20037;-74
2022/09/09 04:09:23;;;;;;;4.17;1.07;;;;;;;12.58;100.00;95892.97;5069832;28;20028;-74
2022/09/09 04:11:50;;;;;;;4.93;1.17;;;;;;;12.68;100.00;95894.34;5069830;28;20453;-74
2022/09/09 04:14:16;;;;;;;4.03;1.10;;;;;;;12.77;100.00;95903.00;5070166;28;20066;-74
2022/09/09 04:16:44;;;;;;;3.50;0.90;;;;;;;12.87;100.00;95897.44;5053305;28;20369;-75
2022/09/09 04:19:13;;;;;;;3.90;0.97;;;;;;;12.94;100.00;95896.56;5070117;28;20032;-75
2022/09/09 04:21:41;;;;;;;4.93;1.20;;;;;;;13.03;100.00;95904.38;5053383;28;20028;-75
2022/09/09 04:24:08;;;;;;;7.43;1.20;;;;;;;13.13;100.00;95894.34;5053050;28;20013;-74
2022/09/09 04:26:36;;;;;;;5.97;1.00;;;;;;;13.23;100.00;95899.34;5053308;28;20036;-75
2022/09/09 04:29:02;;;;;;;7.27;1.53;;;;;;;13.25;100.00;95902.66;5053366;28;20472;-74
2022/09/09 04:31:29;;;;;;;3.50;0.93;;;;;;;13.36;100.00;95905.66;5053204;28;20032;-74
2022/09/09 04:33:56;;;;;;;3.53;1.10;;;;;;;13.51;100.00;95907.44;5070377;28;20025;-75
2022/09/09 04:36:22;;;;;;;3.17;0.87;;;;;;;13.57;100.00;95907.50;5069359;28;20055;-75
2022/09/09 04:38:51;;;;;;;2.73;0.77;;;;;;;13.57;100.00;95907.50;5069389;28;20658;-75
2022/09/09 04:41:17;;;;;;;3.67;1.40;;;;;;;13.53;100.00;95903.63;5069599;28;20032;-74
2022/09/09 04:43:45;;;;;;;5.03;1.20;;;;;;;13.55;100.00;95906.09;5054622;28;20051;-74
2022/09/09 04:46:13;;;;;;;4.43;1.10;;;;;;;13.56;100.00;95899.78;5065801;28;20025;-74
2022/09/09 04:48:39;;;;;;;3.20;0.83;;;;;;;13.60;100.00;95899.22;5066230;28;20029;-74
2022/09/09 04:51:11;;;;;;;3.97;0.90;;;;;;;13.64;100.00;95907.59;5066294;28;20502;-74
2022/09/09 04:53:37;;;;;;;3.70;0.90;;;;;;;13.66;100.00;95905.59;5050860;28;20717;-74
2022/09/09 04:56:11;;;;;;;4.50;1.17;;;;;;;13.67;100.00;95904.59;5065843;28;20654;-74
2022/09/09 04:58:45;;;;;;;3.77;1.00;;;;;;;13.71;100.00;95897.91;5065399;28;20041;-74
2022/09/09 05:01:17;;;;;;;5.60;1.23;;;;;;;13.71;100.00;95895.25;5049506;28;20033;-74
2022/09/09 05:03:45;;;;;;;4.43;0.85;;;;;;;13.72;100.00;95904.84;5049431;28;20039;-74
2022/09/09 05:06:14;;;;;;;4.37;1.13;;;;;;;13.69;100.00;95913.16;5065883;28;20539;-74
2022/09/09 05:08:43;;;;;;;4.30;1.33;;;;;;;13.57;100.00;95912.00;5065619;28;20035;-74
2022/09/09 05:11:18;;;;;;;6.10;1.10;;;;;;;13.58;100.00;95908.34;5068454;28;20028;-76
2022/09/09 05:13:45;;;;;;;5.83;1.43;;;;;;;13.58;100.00;95910.97;5068759;28;20054;-74
2022/09/09 05:16:11;;;;;;;3.63;1.00;;;;;;;13.61;100.00;95913.25;5052453;28;20037;-74
2022/09/09 05:18:42;;;;;;;3.83;1.20;;;;;;;13.60;100.00;95916.91;5052599;28;20501;-74
2022/09/09 05:21:10;;;;;;;3.00;1.03;;;;;;;13.59;100.00;95910.81;5069342;28;20648;-75
2022/09/09 05:23:36;;;;;;;2.90;1.00;;;;;;;13.54;100.00;95912.34;5061477;28;20558;-74
2022/09/09 05:26:03;;;;;;;3.93;0.93;;;;;;;13.58;100.00;95908.34;5048911;28;20050;-74
2022/09/09 05:28:30;;;;;;;5.07;1.20;;;;;;;13.56;100.00;95903.25;5049320;28;20112;-74
2022/09/09 05:31:03;;;;;;;4.87;1.17;;;;;;;13.56;100.00;95910.34;5049086;28;20087;-74
2022/09/09 05:33:31;;;;;;;7.27;2.13;;;;;;;13.61;100.00;95907.97;5049083;28;20029;-74
2022/09/09 05:36:04;;;;;;;3.63;1.00;;;;;;;13.71;100.00;95915.59;5048743;28;20033;-74
2022/09/09 05:38:31;;;;;;;3.95;1.33;;;;;;;13.78;100.00;95916.47;5049187;28;20044;-73
2022/09/09 05:40:56;;;;;;;5.40;1.90;;;;;;;13.79;100.00;95915.50;5048955;28;20059;-74
2022/09/09 05:43:24;;;;;;;6.60;2.40;;;;;;;13.75;100.00;95914.22;5069108;28;20021;-74
2022/09/09 05:46:02;;;;;;;10.00;2.90;;;;;;;13.84;100.00;95927.13;5072386;28;20436;-74
2022/09/09 05:48:33;;;;;;;8.53;2.23;;;;;;;13.81;100.00;95918.75;5072795;28;20082;-74
2022/09/09 05:50:59;;;;;;;7.23;1.43;;;;;;;13.85;100.00;95918.22;5073002;28;20037;-74
2022/09/09 05:53:26;;;;;;;6.50;2.37;;;;;;;14.15;100.00;95923.38;5053059;28;20031;-75
2022/09/09 05:56:04;;;;;;;13.77;4.80;;;;;;;14.17;100.00;95920.53;5069326;28;20135;-74
2022/09/09 05:58:32;;;;;;;10.00;3.60;;;;;;;14.61;100.00;95915.03;5036258;28;20128;-74
2022/09/09 06:01:13;;;;;;;7.80;2.30;;;;;;;14.75;100.00;95910.66;5036164;28;20043;-74
2022/09/09 06:03:42;;;;;;;7.13;1.23;;;;;;;15.32;100.00;95905.13;5036582;28;20056;-74
2022/09/09 06:06:13;;;;;;;6.97;1.65;;;;;;;15.87;100.00;95904.31;5069851;28;20044;-74
2022/09/09 06:08:44;;;;;;;5.28;1.67;;;;;;;16.34;100.00;95907.88;5052624;28;20043;-74
2022/09/09 06:11:13;;;;;;;8.32;2.42;;;;;;;16.86;100.00;95904.38;5069003;28;20084;-74
2022/09/09 06:13:40;;;;;;;7.25;2.03;;;;;;;17.23;100.00;95904.72;5052603;28;20068;-74
2022/09/09 06:16:09;;;;;;;4.30;1.25;;;;;;;17.40;100.00;95902.41;5035997;28;20678;-74
2022/09/09 06:18:35;;;;;;;7.15;1.30;;;;;;;18.20;100.00;95899.41;5035968;28;20163;-74
2022/09/09 06:21:04;;;;;;;5.32;1.65;;;;;;;18.99;100.00;95897.97;5053372;28;20108;-74
2022/09/09 06:23:31;;;;;;;4.80;1.50;;;;;;;19.08;100.00;95900.13;5057482;28;20078;-75
2022/09/09 06:26:11;;;;;;;3.10;1.35;;;;;;;18.66;100.00;95899.06;5055622;28;20094;-76
2022/09/09 06:28:37;;;;;;;6.63;1.35;;;;;;;18.87;100.00;95887.19;5072356;28;20032;-74
2022/09/09 06:31:07;;;;;;;8.00;1.80;;;;;;;19.04;100.00;95890.91;5071300;28;20059;-75
2022/09/09 06:33:39;;;;;;;3.85;1.20;;;;;;;19.18;100.00;95894.28;5071407;28;20040;-75
2022/09/09 06:36:05;;;;;;;5.20;1.10;;;;;;;19.59;100.00;95891.97;5071682;28;20035;-75
2022/09/09 06:38:31;;;;;;;3.00;1.17;;;;;;;21.01;100.00;95894.81;5056639;28;20068;-75
2022/09/09 06:40:59;;;;;;;4.55;1.20;;;;;;;21.48;94.34;95889.44;5071296;28;20081;-75
2022/09/09 06:43:26;;;;;;;3.22;1.17;;;;;;;21.98;90.22;95904.06;5071929;28;20048;-75
2022/09/09 06:46:21;;;;;;;3.33;1.20;;;;;;;22.07;88.93;95903.44;5071478;28;20131;-75
2022/09/09 06:48:50;;;;;;;7.78;2.03;;;;;;;22.03;88.51;95898.78;5068729;28;20151;-75
2022/09/09 06:51:18;;;;;;;5.68;1.30;;;;;;;21.82;90.94;95903.75;5071482;28;20485;-75
2022/09/09 06:53:46;;;;;;;5.68;1.20;;;;;;;22.04;91.20;95903.13;5037934;28;20033;-75
2022/09/09 06:56:16;;;;;;;2.78;1.02;;;;;;;20.43;99.12;95915.06;5050988;28;20036;-75
2022/09/09 06:58:46;;;;;;;2.50;0.90;;;;;;;19.85;100.00;95923.69;5060295;28;20029;-75
2022/09/09 07:01:27;;;;;;;4.65;1.00;;;;;;;19.16;100.00;95919.53;5053446;28;20386;-75
2022/09/09 07:03:55;;;;;;;3.10;1.00;;;;;;;18.98;100.00;95921.16;5054479;28;20063;-75
2022/09/09 07:06:26;;;;;;;3.15;1.13;;;;;;;18.92;100.00;95922.00;5071132;28;20096;-75
2022/09/09 07:08:54;;;;;;;5.32;1.40;;;;;;;19.31;100.00;95918.16;5070958;28;20074;-75
2022/09/09 07:11:26;;;;;;;7.10;2.88;;;;;;;20.00;100.00;95920.63;5050673;28;20025;-75
2022/09/09 07:13:52;;;;;;;2.88;1.08;;;;;;;20.73;98.37;95914.22;5071057;28;20037;-76
2022/09/09 07:16:20;;;;;;;3.60;1.13;;;;;;;21.69;93.27;95904.03;5072404;28;20551;-75
2022/09/09 07:18:46;;;;;;;3.55;0.82;;;;;;;21.95;90.72;95909.91;5069038;28;20428;-75
2022/09/09 07:21:13;;;;;;;4.70;1.10;;;;;;;21.91;90.09;95908.75;5065785;28;20032;-74
2022/09/09 07:23:40;;;;;;;3.55;0.90;;;;;;;22.68;85.68;95909.09;5047239;28;20016;-74
2022/09/09 07:26:10;;;;;;;4.30;1.20;;;;;;;22.55;86.63;95912.09;5066293;28;20513;-76
2022/09/09 07:28:37;;;;;;;6.70;1.10;;;;;;;22.28;87.50;95920.72;5067759;28;20044;-75
2022/09/09 07:31:05;;;;;;;3.70;1.10;;;;;;;22.81;85.39;95918.69;5066013;28;20507;-74
2022/09/09 07:33:34;;;;;;;3.85;1.20;;;;;;;22.19;89.50;95918.69;5066973;28;20038;-75
2022/09/09 07:36:09;;;;;;;4.97;2.35;;;;;;;21.71;94.94;95920.69;5058693;28;20501;-78
2022/09/09 07:38:45;;;;;;;3.03;0.93;;;;;;;21.55;95.95;95930.25;5067612;28;20550;-75
2022/09/09 07:41:36;;;;;;;5.80;1.25;;;;;;;21.23;98.86;95929.81;5052052;28;20031;-76
2022/09/09 07:44:17;;;;;;;3.42;1.33;;;;;;;20.83;98.57;95935.03;5062395;28;20123;-76
2022/09/09 07:46:45;;;;;;;;;;;;;;;20.46;100.00;95935.97;5045685;28;20037;-77
2022/09/09 07:49:17;;;;;;;4.63;1.17;;;;;;;20.45;100.00;95934.34;5065901;28;19916;-76
2022/09/09 07:51:49;;;;;;;4.18;1.02;;;;;;;21.00;100.00;95927.97;5062704;28;20097;-76
2022/09/09 07:54:23;;;;;;;3.80;0.82;;;;;;;20.92;100.00;95931.78;5050583;28;20028;-76
2022/09/09 07:56:51;;;;;;;3.63;1.08;;;;;;;20.61;100.00;95938.25;5062882;28;20072;-76
2022/09/09 07:59:18;;;;;;;4.00;0.90;;;;;;;21.05;97.80;95929.91;5067510;28;20028;-77
2022/09/09 08:01:54;;;;;;;3.35;0.85;;;;;;;21.03;97.86;95937.38;5068739;28;20043;-76
2022/09/09 08:04:24;;;;;;;2.47;0.85;;;;;;;21.12;99.82;95943.97;5054034;28;20033;-77
2022/09/09 08:06:53;;;;;;;4.22;1.40;;;;;;;20.12;100.00;95934.00;5071304;28;20032;-78
2022/09/09 08:09:21;;;;;;;3.92;1.05;;;;;;;20.84;100.00;95940.13;5065236;28;20045;-78
2022/09/09 08:11:48;;;;;;;2.72;0.75;;;;;;;20.78;100.00;95943.72;5064908;28;20721;-77
2022/09/09 08:14:14;;;;;;;13.48;1.83;;;;;;;20.88;96.05;95943.16;5053060;28;20023;-76
2022/09/09 08:16:44;;;;;;;2.15;0.90;;;;;;;21.56;93.02;95947.97;5071212;28;20036;-78
2022/09/09 08:19:15;;;;;;;3.25;1.08;;;;;;;21.75;95.12;95940.56;5064058;28;20036;-76
2022/09/09 08:21:42;;;;;;;3.22;1.08;;;;;;;22.32;91.65;95943.31;5067407;28;20028;-77
2022/09/09 08:24:10;;;;;;;4.57;1.25;;;;;;;23.26;83.01;95940.03;5064012;28;20032;-78
2022/09/09 08:26:39;;;;;;;5.15;1.70;;;;;;;23.22;78.41;95935.41;5064799;28;20283;-78
2022/09/09 08:29:07;;;;;;;2.90;1.40;;;;;;;23.26;77.24;95934.66;5066657;28;20698;-77
2022/09/09 08:31:36;;;;;;;3.40;0.80;;;;;;;23.74;75.75;95938.56;5066284;28;20028;-77
2022/09/09 08:34:05;;;;;;;3.25;0.88;;;;;;;22.61;80.35;95934.44;5066622;28;20081;-77
2022/09/09 08:36:35;;;;;;;3.85;0.95;;;;;;;23.25;81.29;95937.59;5056717;28;20182;-77
2022/09/09 08:39:03;;;;;;;5.07;1.42;;;;;;;23.80;76.38;95930.56;5058407;28;20119;-77
2022/09/09 08:41:52;;;;;;;5.45;1.85;;;;;;;24.95;70.26;95941.97;5074206;28;20024;-78
2022/09/09 08:44:21;;;;;;;3.55;1.38;;;;;;;25.00;66.21;95947.38;5064000;28;20047;-78
2022/09/09 08:47:07;;;;;;;3.03;1.33;;;;;;;23.59;71.80;95946.38;5068670;28;20029;-77
2022/09/09 08:49:49;;;;;;;1.88;0.80;;;;;;;23.88;75.85;95951.63;5064927;28;20042;-78
2022/09/09 08:52:22;;;;;;;4.15;1.20;;;;;;;24.03;74.19;95950.97;5046130;28;20032;-77
2022/09/09 08:54:48;;;;;;;5.38;0.90;;;;;;;23.69;74.59;95956.47;5066398;28;20031;-77
2022/09/09 08:57:21;;;;;;;1.42;0.77;;;;;;;23.42;77.58;95961.72;5048235;28;20028;-77
2022/09/09 08:59:50;;;;;;;3.83;1.08;;;;;;;23.92;73.73;95955.44;5072533;28;20046;-77
2022/09/09 09:03:13;;;;;;;3.45;1.02;;;;;;;24.01;71.00;95956.63;5058826;28;20036;-77
2022/09/09 09:06:05;;;;;;;4.43;1.17;;;;;;;24.82;67.21;95958.53;5039005;28;20028;-77
2022/09/09 09:08:43;;;;;;;3.38;1.10;;;;;;;23.76;73.15;95962.47;5046813;28;20573;-77
2022/09/09 09:11:09;;;;;;;2.83;0.90;;;;;;;24.10;71.64;95963.16;5058938;28;20039;-78
2022/09/09 09:13:41;;;;;;;4.05;1.42;;;;;;;24.11;68.66;95964.78;5066712;28;20028;-77
2022/09/09 09:16:35;;;;;;;2.85;1.00;;;;;;;23.98;67.35;95957.13;5062909;28;20076;-76
2022/09/09 09:19:03;;;;;;;5.43;1.42;;;;;;;25.01;65.49;95948.19;5065404;28;20123;-77
2022/09/09 09:21:48;;;;;;;4.90;1.00;;;;;;;24.54;64.30;95949.66;5065124;28;20116;-77
2022/09/09 09:24:19;;;;;;;;;;;;;;;24.33;64.67;95942.44;5072198;28;20024;-77
2022/09/09 09:26:45;;;;;;;5.57;1.00;;;;;;;25.99;56.60;95942.31;5071744;28;19926;-77
2022/09/09 09:29:19;;;;;;;2.72;1.13;;;;;;;24.91;61.74;95947.03;5064027;28;20028;-78
2022/09/09 09:31:54;;;;;;;4.70;0.90;;;;;;;22.42;74.82;95941.88;5065677;28;20040;-77
2022/09/09 09:34:22;;;;;;;4.68;1.25;;;;;;;22.87;80.60;95946.34;5063035;28;20116;-76
2022/09/09 09:36:57;;;;;;;3.78;1.02;;;;;;;23.83;74.31;95949.69;5061377;28;21458;-76
2022/09/09 09:39:28;;;;;;;2.15;0.90;;;;;;;23.87;69.90;95944.63;5057263;28;20058;-76
2022/09/09 09:42:00;;;;;;;3.63;1.10;;;;;;;23.86;74.19;95940.31;5063406;28;20035;-76
2022/09/09 09:44:29;;;;;;;3.10;1.05;;;;;;;24.53;69.30;95942.69;5049199;28;20033;-76
2022/09/09 09:47:29;;;;;;;4.13;1.08;;;;;;;23.79;74.10;95945.88;5063608;28;20034;-76
2022/09/09 09:50:03;;;;;;;;;;;;;;;23.50;76.06;95947.88;5065371;28;20047;-76
2022/09/09 09:52:36;;;;;;;3.83;1.10;;;;;;;23.23;76.32;95947.75;5064896;28;19951;-76
2022/09/09 09:55:06;;;;;;;3.22;1.02;;;;;;;23.67;76.99;95945.13;5041198;28;20125;-77
2022/09/09 09:57:34;;;;;;;4.60;1.40;;;;;;;24.06;71.74;95945.13;5065249;28;20028;-77
2022/09/09 10:00:17;;;;;;;4.60;0.98;;;;;;;23.07;78.49;95944.03;5066500;28;20028;-78
2022/09/09 10:02:51;;;;;;;4.68;1.67;;;;;;;23.06;77.69;95939.72;5046813;28;20028;-77
2022/09/09 10:05:26;;;;;;;4.30;1.08;;;;;;;23.16;74.06;95947.94;5065616;28;20074;-78
2022/09/09 10:08:20;;;;;;;4.40;1.02;;;;;;;23.24;77.14;95946.72;5060523;28;20032;-77
2022/09/09 10:11:30;;;;;;;3.47;1.25;;;;;;;23.72;69.28;95940.69;5071089;28;20036;-78
2022/09/09 10:14:10;;;;;;;4.80;1.35;;;;;;;22.87;75.94;95943.69;5065667;28;20024;-77
2022/09/09 10:16:59;;;;;;;4.40;0.88;;;;;;;22.01;81.09;95939.22;5061152;28;20040;-80
2022/09/09 10:19:33;;;;;;;6.38;1.25;;;;;;;21.20;85.36;95949.00;5061145;28;20037;-78
2022/09/09 10:22:22;;;;;;;4.07;1.00;;;;;;;21.59;87.78;95955.47;5047572;28;20037;-77
2022/09/09 10:25:16;;;;;;;4.60;1.40;;;;;;;21.50;88.62;95940.88;5042767;28;20036;-78
2022/09/09 10:27:49;;;;;;;;;;;;;;;21.56;89.49;95941.75;5060951;28;20044;-77
2022/09/09 10:30:22;;;;;;;6.55;1.05;;;;;;;23.23;78.80;95937.84;5073558;28;19965;-77
2022/09/09 10:32:48;;;;;;;;;;;;;;;23.38;78.89;95936.44;5069136;28;20093;-77
2022/09/09 10:35:26;;;;;;;4.05;0.90;;;;;;;23.49;77.69;95930.16;5070454;28;19908;-75
2022/09/09 10:38:01;;;;;;;4.30;1.08;;;;;;;24.22;68.99;95928.91;5065462;28;20052;-77
2022/09/09 10:40:38;;;;;;;3.83;1.45;;;;;;;24.00;66.79;95928.13;5063522;28;20035;-77
2022/09/09 10:43:20;;;;;;;4.50;1.40;;;;;;;24.86;63.83;95924.69;5068798;28;20048;-77
2022/09/09 10:45:48;;;;;;;3.55;1.00;;;;;;;24.08;69.45;95919.63;5072203;28;20078;-78
2022/09/09 10:48:20;;;;;;;5.32;1.05;;;;;;;24.32;67.57;95916.66;5056081;28;20035;-76
2022/09/09 10:51:21;;;;;;;3.92;1.10;;;;;;;25.54;63.32;95912.22;5053610;28;20382;-76
2022/09/09 10:53:53;;;;;;;3.65;0.93;;;;;;;25.59;61.02;95911.44;5066317;28;20497;-77
2022/09/09 10:56:23;;;;;;;4.22;1.00;;;;;;;25.24;56.17;95912.84;5064193;28;20123;-77
2022/09/09 10:59:14;;;;;;;4.60;1.20;;;;;;;25.93;56.92;95909.19;5065868;28;20039;-77
2022/09/09 11:01:47;;;;;;;3.72;1.23;;;;;;;26.41;54.41;95909.84;5067832;28;20398;-77
2022/09/09 11:04:32;;;;;;;3.85;1.20;;;;;;;25.15;59.60;95915.25;5069122;28;20036;-77
2022/09/09 11:07:04;;;;;;;3.45;1.00;;;;;;;26.38;54.53;95910.38;5067225;28;20029;-77
2022/09/09 11:09:36;;;;;;;6.80;1.10;;;;;;;25.93;54.77;95909.19;5068093;28;20102;-77
2022/09/09 11:12:02;;;;;;;4.25;0.88;;;;;;;26.79;51.97;95910.41;5051415;28;20412;-77
2022/09/09 11:15:03;;;;;;;4.50;1.15;;;;;;;26.87;50.42;95917.19;5061532;28;20032;-77
2022/09/09 11:17:50;;;;;;;4.53;1.02;;;;;;;27.19;46.78;95914.19;5069296;28;20050;-76
2022/09/09 11:20:16;;;;;;;5.30;1.10;;;;;;;26.34;48.37;95915.47;5064804;28;20028;-77
2022/09/09 11:23:00;;;;;;;2.15;1.02;;;;;;;25.74;48.74;95914.19;5068627;28;20032;-77
2022/09/09 11:25:39;;;;;;;2.72;0.85;;;;;;;26.29;47.70;95906.56;5043257;28;20040;-77
2022/09/09 11:28:24;;;;;;;3.05;0.98;;;;;;;25.89;47.77;95885.72;5062732;28;20032;-78
2022/09/09 11:31:08;;;;;;;4.75;0.90;;;;;;;25.48;50.37;95907.88;5066660;28;20040;-76
2022/09/09 11:33:57;;;;;;;5.68;2.28;;;;;;;25.91;47.29;95900.56;5066784;28;20055;-77
2022/09/09 11:36:29;;;;;;;4.32;1.05;;;;;;;25.50;53.03;95903.03;5064096;28;20554;-78
2022/09/09 11:39:30;;;;;;;5.65;1.13;;;;;;;24.72;52.30;95899.28;5073128;28;20059;-78
2022/09/09 11:42:14;;;;;;;4.43;1.00;;;;;;;24.30;51.22;95902.63;5056307;28;20036;-76
2022/09/09 11:44:41;;;;;;;4.25;1.48;;;;;;;24.81;51.56;95900.41;5069812;28;20059;-75
2022/09/09 11:47:24;;;;;;;6.43;1.48;;;;;;;24.16;55.69;95891.50;5052564;28;20040;-76
2022/09/09 11:49:50;;;;;;;5.43;1.05;;;;;;;24.70;53.97;95892.28;5052691;28;20064;-77
2022/09/09 11:52:35;;;;;;;4.82;0.93;;;;;;;23.81;54.85;95887.38;5057996;28;20032;-78
2022/09/09 11:55:32;;;;;;;3.75;0.95;;;;;;;24.76;55.24;95889.63;5069432;28;20127;-78
2022/09/09 11:58:25;;;;;;;4.85;0.90;;;;;;;25.01;51.14;95875.53;5063364;28;20044;-79
2022/09/09 12:00:52;;;;;;;4.68;1.13;;;;;;;23.46;54.38;95880.47;5067634;28;20053;-78